sensor_id;sensor_type;location;lat;lon;timestamp;P1;durP1;ratioP1;P2;durP2;ratioP2
10403;SDS011;5248;47.374;8.486;2023-05-29T00:01:35;5.88;;;4.53;;
10403;SDS011;5248;47.374;8.486;2023-05-29T00:04:02;6.97;;;5.05;;
10403;SDS011;5248;47.374;8.486;2023-05-29T00:06:29;6.88;;;5.43;;
10403;SDS011;5248;47.374;8.486;2023-05-29T00:08:57;6.75;;;4.72;;
10403;SDS011;5248;47.374;8.486;2023-05-29T00:11:23;6.07;;;5.13;;
10403;SDS011;5248;47.374;8.486;2023-05-29T00:13:51;5.75;;;5.18;;
10403;SDS011;5248;47.374;8.486;2023-05-29T00:16:18;5.30;;;4.60;;
10403;SDS011;5248;47.374;8.486;2023-05-29T00:18:46;5.90;;;5.03;;
10403;SDS011;5248;47.374;8.486;2023-05-29T00:21:13;8.88;;;5.40;;
10403;SDS011;5248;47.374;8.486;2023-05-29T00:23:39;7.18;;;5.15;;
10403;SDS011;5248;47.374;8.486;2023-05-29T00:26:10;6.43;;;5.10;;
10403;SDS011;5248;47.374;8.486;2023-05-29T00:28:36;5.80;;;4.80;;
10403;SDS011;5248;47.374;8.486;2023-05-29T00:31:03;6.10;;;5.00;;
10403;SDS011;5248;47.374;8.486;2023-05-29T00:33:30;8.93;;;5.28;;
10403;SDS011;5248;47.374;8.486;2023-05-29T00:35:56;6.47;;;4.75;;
10403;SDS011;5248;47.374;8.486;2023-05-29T00:38:22;8.10;;;5.20;;
10403;SDS011;5248;47.374;8.486;2023-05-29T00:40:49;6.05;;;4.90;;
10403;SDS011;5248;47.374;8.486;2023-05-29T00:43:17;7.10;;;4.90;;
10403;SDS011;5248;47.374;8.486;2023-05-29T00:45:43;6.28;;;5.22;;
10403;SDS011;5248;47.374;8.486;2023-05-29T00:48:10;6.07;;;5.03;;
10403;SDS011;5248;47.374;8.486;2023-05-29T00:50:36;8.10;;;5.07;;
10403;SDS011;5248;47.374;8.486;2023-05-29T00:53:04;6.18;;;4.82;;
10403;SDS011;5248;47.374;8.486;2023-05-29T00:55:32;6.65;;;5.10;;
10403;SDS011;5248;47.374;8.486;2023-05-29T00:57:59;5.80;;;4.93;;
10403;SDS011;5248;47.374;8.486;2023-05-29T01:00:27;7.53;;;4.95;;
10403;SDS011;5248;47.374;8.486;2023-05-29T01:02:55;6.95;;;4.57;;
10403;SDS011;5248;47.374;8.486;2023-05-29T01:05:23;6.07;;;4.82;;
10403;SDS011;5248;47.374;8.486;2023-05-29T01:07:49;6.22;;;4.90;;
10403;SDS011;5248;47.374;8.486;2023-05-29T01:10:16;6.83;;;4.73;;
10403;SDS011;5248;47.374;8.486;2023-05-29T01:12:43;5.20;;;4.70;;
10403;SDS011;5248;47.374;8.486;2023-05-29T01:15:16;6.20;;;4.70;;
10403;SDS011;5248;47.374;8.486;2023-05-29T01:17:50;7.13;;;4.97;;
10403;SDS011;5248;47.374;8.486;2023-05-29T01:20:26;7.30;;;5.10;;
10403;SDS011;5248;47.374;8.486;2023-05-29T01:23:06;8.13;;;5.50;;
10403;SDS011;5248;47.374;8.486;2023-05-29T01:25:36;5.70;;;4.93;;
10403;SDS011;5248;47.374;8.486;2023-05-29T01:28:13;6.45;;;5.30;;
10403;SDS011;5248;47.374;8.486;2023-05-29T01:30:42;6.87;;;5.20;;
10403;SDS011;5248;47.374;8.486;2023-05-29T01:33:09;5.97;;;5.00;;
10403;SDS011;5248;47.374;8.486;2023-05-29T01:35:35;5.75;;;4.93;;
10403;SDS011;5248;47.374;8.486;2023-05-29T01:38:02;6.30;;;4.82;;
10403;SDS011;5248;47.374;8.486;2023-05-29T01:40:28;5.87;;;4.80;;
10403;SDS011;5248;47.374;8.486;2023-05-29T01:42:55;7.57;;;5.27;;
10403;SDS011;5248;47.374;8.486;2023-05-29T01:45:23;8.10;;;4.60;;
10403;SDS011;5248;47.374;8.486;2023-05-29T01:47:50;5.40;;;4.90;;
10403;SDS011;5248;47.374;8.486;2023-05-29T01:50:17;7.03;;;4.90;;
10403;SDS011;5248;47.374;8.486;2023-05-29T01:52:44;5.27;;;4.77;;
10403;SDS011;5248;47.374;8.486;2023-05-29T01:55:11;6.63;;;4.70;;
10403;SDS011;5248;47.374;8.486;2023-05-29T01:57:37;5.37;;;4.63;;
10403;SDS011;5248;47.374;8.486;2023-05-29T02:00:05;6.63;;;5.10;;
10403;SDS011;5248;47.374;8.486;2023-05-29T02:02:37;6.27;;;4.83;;
10403;SDS011;5248;47.374;8.486;2023-05-29T02:05:04;7.20;;;5.33;;
10403;SDS011;5248;47.374;8.486;2023-05-29T02:07:31;7.93;;;5.27;;
10403;SDS011;5248;47.374;8.486;2023-05-29T02:09:58;5.13;;;4.67;;
10403;SDS011;5248;47.374;8.486;2023-05-29T02:12:24;6.27;;;4.90;;
10403;SDS011;5248;47.374;8.486;2023-05-29T02:14:51;6.67;;;4.83;;
10403;SDS011;5248;47.374;8.486;2023-05-29T02:17:17;5.93;;;4.87;;
10403;SDS011;5248;47.374;8.486;2023-05-29T02:19:45;7.53;;;5.30;;
10403;SDS011;5248;47.374;8.486;2023-05-29T02:22:11;7.90;;;5.20;;
10403;SDS011;5248;47.374;8.486;2023-05-29T02:24:38;7.27;;;4.77;;
10403;SDS011;5248;47.374;8.486;2023-05-29T02:27:04;6.87;;;5.03;;
10403;SDS011;5248;47.374;8.486;2023-05-29T02:29:31;10.53;;;5.07;;
10403;SDS011;5248;47.374;8.486;2023-05-29T02:31:58;6.77;;;4.93;;
10403;SDS011;5248;47.374;8.486;2023-05-29T02:34:24;6.07;;;4.90;;
10403;SDS011;5248;47.374;8.486;2023-05-29T02:36:53;7.40;;;5.27;;
10403;SDS011;5248;47.374;8.486;2023-05-29T02:39:19;7.40;;;5.00;;
10403;SDS011;5248;47.374;8.486;2023-05-29T02:41:47;5.70;;;5.10;;
10403;SDS011;5248;47.374;8.486;2023-05-29T02:44:13;6.23;;;5.50;;
10403;SDS011;5248;47.374;8.486;2023-05-29T02:46:40;5.30;;;4.80;;
10403;SDS011;5248;47.374;8.486;2023-05-29T02:49:06;5.77;;;4.93;;
10403;SDS011;5248;47.374;8.486;2023-05-29T02:51:33;6.87;;;5.37;;
10403;SDS011;5248;47.374;8.486;2023-05-29T02:54:04;7.47;;;4.97;;
10403;SDS011;5248;47.374;8.486;2023-05-29T02:56:30;6.13;;;5.33;;
10403;SDS011;5248;47.374;8.486;2023-05-29T02:58:57;6.30;;;5.00;;
10403;SDS011;5248;47.374;8.486;2023-05-29T03:01:25;6.27;;;5.60;;
10403;SDS011;5248;47.374;8.486;2023-05-29T03:03:51;5.43;;;4.80;;
10403;SDS011;5248;47.374;8.486;2023-05-29T03:06:18;7.43;;;5.20;;
10403;SDS011;5248;47.374;8.486;2023-05-29T03:08:45;7.33;;;5.13;;
10403;SDS011;5248;47.374;8.486;2023-05-29T03:11:13;8.30;;;6.53;;
10403;SDS011;5248;47.374;8.486;2023-05-29T03:13:40;6.00;;;5.17;;
10403;SDS011;5248;47.374;8.486;2023-05-29T03:16:07;6.87;;;5.83;;
10403;SDS011;5248;47.374;8.486;2023-05-29T03:18:33;7.40;;;4.93;;
10403;SDS011;5248;47.374;8.486;2023-05-29T03:21:00;7.27;;;5.40;;
10403;SDS011;5248;47.374;8.486;2023-05-29T03:23:27;7.80;;;5.60;;
10403;SDS011;5248;47.374;8.486;2023-05-29T03:25:54;9.33;;;5.47;;
10403;SDS011;5248;47.374;8.486;2023-05-29T03:28:21;6.27;;;5.20;;
10403;SDS011;5248;47.374;8.486;2023-05-29T03:30:48;7.47;;;5.63;;
10403;SDS011;5248;47.374;8.486;2023-05-29T03:33:16;7.43;;;5.30;;
10403;SDS011;5248;47.374;8.486;2023-05-29T03:35:43;6.70;;;5.10;;
10403;SDS011;5248;47.374;8.486;2023-05-29T03:38:09;6.30;;;5.40;;
10403;SDS011;5248;47.374;8.486;2023-05-29T03:40:36;6.13;;;5.30;;
10403;SDS011;5248;47.374;8.486;2023-05-29T03:43:02;8.53;;;5.57;;
10403;SDS011;5248;47.374;8.486;2023-05-29T03:45:30;7.43;;;5.20;;
10403;SDS011;5248;47.374;8.486;2023-05-29T03:47:56;8.53;;;5.20;;
10403;SDS011;5248;47.374;8.486;2023-05-29T03:50:23;6.27;;;4.93;;
10403;SDS011;5248;47.374;8.486;2023-05-29T03:52:49;8.80;;;5.27;;
10403;SDS011;5248;47.374;8.486;2023-05-29T03:55:16;8.07;;;5.67;;
10403;SDS011;5248;47.374;8.486;2023-05-29T03:57:42;7.23;;;5.63;;
10403;SDS011;5248;47.374;8.486;2023-05-29T04:00:09;6.17;;;4.63;;
10403;SDS011;5248;47.374;8.486;2023-05-29T04:02:40;6.83;;;5.73;;
10403;SDS011;5248;47.374;8.486;2023-05-29T04:05:07;7.67;;;5.30;;
10403;SDS011;5248;47.374;8.486;2023-05-29T04:07:34;7.23;;;5.50;;
10403;SDS011;5248;47.374;8.486;2023-05-29T04:10:02;6.57;;;5.40;;
10403;SDS011;5248;47.374;8.486;2023-05-29T04:12:28;7.70;;;5.43;;
10403;SDS011;5248;47.374;8.486;2023-05-29T04:14:55;9.87;;;5.83;;
10403;SDS011;5248;47.374;8.486;2023-05-29T04:17:21;8.63;;;5.50;;
10403;SDS011;5248;47.374;8.486;2023-05-29T04:19:49;5.07;;;4.37;;
10403;SDS011;5248;47.374;8.486;2023-05-29T04:22:16;7.60;;;5.57;;
10403;SDS011;5248;47.374;8.486;2023-05-29T04:24:42;8.60;;;5.60;;
10403;SDS011;5248;47.374;8.486;2023-05-29T04:27:09;7.20;;;5.83;;
10403;SDS011;5248;47.374;8.486;2023-05-29T04:29:38;7.03;;;5.50;;
10403;SDS011;5248;47.374;8.486;2023-05-29T04:32:05;8.57;;;5.43;;
10403;SDS011;5248;47.374;8.486;2023-05-29T04:34:33;7.30;;;5.63;;
10403;SDS011;5248;47.374;8.486;2023-05-29T04:37:03;7.50;;;5.40;;
10403;SDS011;5248;47.374;8.486;2023-05-29T04:39:30;7.33;;;5.50;;
10403;SDS011;5248;47.374;8.486;2023-05-29T04:41:58;6.83;;;5.20;;
10403;SDS011;5248;47.374;8.486;2023-05-29T04:44:25;7.27;;;5.53;;
10403;SDS011;5248;47.374;8.486;2023-05-29T04:46:52;6.27;;;5.00;;
10403;SDS011;5248;47.374;8.486;2023-05-29T04:49:19;5.93;;;5.17;;
10403;SDS011;5248;47.374;8.486;2023-05-29T04:51:45;6.93;;;5.43;;
10403;SDS011;5248;47.374;8.486;2023-05-29T04:54:13;6.63;;;5.70;;
10403;SDS011;5248;47.374;8.486;2023-05-29T04:56:39;7.30;;;5.57;;
10403;SDS011;5248;47.374;8.486;2023-05-29T04:59:06;5.53;;;5.00;;
10403;SDS011;5248;47.374;8.486;2023-05-29T05:01:33;6.40;;;5.63;;
10403;SDS011;5248;47.374;8.486;2023-05-29T05:03:59;9.50;;;5.60;;
10403;SDS011;5248;47.374;8.486;2023-05-29T05:06:26;6.33;;;5.47;;
10403;SDS011;5248;47.374;8.486;2023-05-29T05:08:53;6.13;;;5.23;;
10403;SDS011;5248;47.374;8.486;2023-05-29T05:11:23;7.90;;;5.80;;
10403;SDS011;5248;47.374;8.486;2023-05-29T05:13:51;6.70;;;5.33;;
10403;SDS011;5248;47.374;8.486;2023-05-29T05:16:18;10.70;;;5.90;;
10403;SDS011;5248;47.374;8.486;2023-05-29T05:18:44;6.45;;;5.80;;
10403;SDS011;5248;47.374;8.486;2023-05-29T05:21:11;7.30;;;5.22;;
10403;SDS011;5248;47.374;8.486;2023-05-29T05:23:37;7.82;;;5.30;;
10403;SDS011;5248;47.374;8.486;2023-05-29T05:26:04;8.40;;;5.88;;
10403;SDS011;5248;47.374;8.486;2023-05-29T05:28:31;8.05;;;6.80;;
10403;SDS011;5248;47.374;8.486;2023-05-29T05:30:58;6.25;;;5.32;;
10403;SDS011;5248;47.374;8.486;2023-05-29T05:33:26;6.97;;;6.10;;
10403;SDS011;5248;47.374;8.486;2023-05-29T05:35:53;6.85;;;5.63;;
10403;SDS011;5248;47.374;8.486;2023-05-29T05:38:19;8.15;;;5.57;;
10403;SDS011;5248;47.374;8.486;2023-05-29T05:40:46;7.43;;;5.88;;
10403;SDS011;5248;47.374;8.486;2023-05-29T05:43:12;6.28;;;5.40;;
10403;SDS011;5248;47.374;8.486;2023-05-29T05:45:40;7.13;;;6.13;;
10403;SDS011;5248;47.374;8.486;2023-05-29T05:48:07;8.10;;;5.65;;
10403;SDS011;5248;47.374;8.486;2023-05-29T05:50:34;7.40;;;5.25;;
10403;SDS011;5248;47.374;8.486;2023-05-29T05:53:01;7.25;;;5.43;;
10403;SDS011;5248;47.374;8.486;2023-05-29T05:55:27;7.95;;;5.65;;
10403;SDS011;5248;47.374;8.486;2023-05-29T05:57:54;8.25;;;5.80;;
10403;SDS011;5248;47.374;8.486;2023-05-29T06:00:23;7.70;;;5.50;;
10403;SDS011;5248;47.374;8.486;2023-05-29T06:02:52;10.23;;;6.43;;
10403;SDS011;5248;47.374;8.486;2023-05-29T06:05:18;7.28;;;5.63;;
10403;SDS011;5248;47.374;8.486;2023-05-29T06:07:45;6.30;;;5.32;;
10403;SDS011;5248;47.374;8.486;2023-05-29T06:10:11;7.55;;;5.78;;
10403;SDS011;5248;47.374;8.486;2023-05-29T06:12:38;8.35;;;6.00;;
10403;SDS011;5248;47.374;8.486;2023-05-29T06:15:05;7.40;;;5.72;;
10403;SDS011;5248;47.374;8.486;2023-05-29T06:17:33;6.15;;;5.38;;
10403;SDS011;5248;47.374;8.486;2023-05-29T06:20:02;8.25;;;6.00;;
10403;SDS011;5248;47.374;8.486;2023-05-29T06:22:31;6.55;;;5.50;;
10403;SDS011;5248;47.374;8.486;2023-05-29T06:24:58;8.70;;;5.93;;
10403;SDS011;5248;47.374;8.486;2023-05-29T06:27:24;7.97;;;5.63;;
10403;SDS011;5248;47.374;8.486;2023-05-29T06:29:51;6.50;;;5.68;;
10403;SDS011;5248;47.374;8.486;2023-05-29T06:32:18;8.52;;;5.97;;
10403;SDS011;5248;47.374;8.486;2023-05-29T06:34:45;8.73;;;6.38;;
10403;SDS011;5248;47.374;8.486;2023-05-29T06:37:13;7.13;;;5.47;;
10403;SDS011;5248;47.374;8.486;2023-05-29T06:39:39;7.47;;;5.72;;
10403;SDS011;5248;47.374;8.486;2023-05-29T06:42:07;7.47;;;5.88;;
10403;SDS011;5248;47.374;8.486;2023-05-29T06:44:33;7.00;;;5.55;;
10403;SDS011;5248;47.374;8.486;2023-05-29T06:47:04;8.70;;;5.82;;
10403;SDS011;5248;47.374;8.486;2023-05-29T06:49:31;7.90;;;5.90;;
10403;SDS011;5248;47.374;8.486;2023-05-29T06:51:57;8.23;;;5.85;;
10403;SDS011;5248;47.374;8.486;2023-05-29T06:54:26;9.27;;;6.28;;
10403;SDS011;5248;47.374;8.486;2023-05-29T06:56:52;9.35;;;6.18;;
10403;SDS011;5248;47.374;8.486;2023-05-29T06:59:19;6.70;;;5.93;;
10403;SDS011;5248;47.374;8.486;2023-05-29T07:01:46;10.20;;;6.43;;
10403;SDS011;5248;47.374;8.486;2023-05-29T07:04:13;9.23;;;6.20;;
10403;SDS011;5248;47.374;8.486;2023-05-29T07:06:39;7.50;;;5.55;;
10403;SDS011;5248;47.374;8.486;2023-05-29T07:09:06;6.63;;;5.95;;
10403;SDS011;5248;47.374;8.486;2023-05-29T07:11:33;6.72;;;5.47;;
10403;SDS011;5248;47.374;8.486;2023-05-29T07:14:00;6.30;;;5.57;;
10403;SDS011;5248;47.374;8.486;2023-05-29T07:16:26;8.15;;;5.47;;
10403;SDS011;5248;47.374;8.486;2023-05-29T07:18:53;6.72;;;5.70;;
10403;SDS011;5248;47.374;8.486;2023-05-29T07:21:19;9.15;;;5.57;;
10403;SDS011;5248;47.374;8.486;2023-05-29T07:23:46;6.28;;;5.13;;
10403;SDS011;5248;47.374;8.486;2023-05-29T07:26:12;5.88;;;5.30;;
10403;SDS011;5248;47.374;8.486;2023-05-29T07:28:40;5.75;;;5.22;;
10403;SDS011;5248;47.374;8.486;2023-05-29T07:31:07;7.00;;;5.85;;
10403;SDS011;5248;47.374;8.486;2023-05-29T07:33:33;8.15;;;5.90;;
10403;SDS011;5248;47.374;8.486;2023-05-29T07:36:00;8.18;;;5.93;;
10403;SDS011;5248;47.374;8.486;2023-05-29T07:38:26;8.10;;;5.55;;
10403;SDS011;5248;47.374;8.486;2023-05-29T07:40:53;6.97;;;5.32;;
10403;SDS011;5248;47.374;8.486;2023-05-29T07:43:20;11.30;;;6.00;;
10403;SDS011;5248;47.374;8.486;2023-05-29T07:45:48;6.32;;;5.60;;
10403;SDS011;5248;47.374;8.486;2023-05-29T07:48:15;8.10;;;5.47;;
10403;SDS011;5248;47.374;8.486;2023-05-29T07:50:41;7.85;;;5.53;;
10403;SDS011;5248;47.374;8.486;2023-05-29T07:53:08;7.13;;;5.38;;
10403;SDS011;5248;47.374;8.486;2023-05-29T07:55:34;6.88;;;5.55;;
10403;SDS011;5248;47.374;8.486;2023-05-29T07:58:01;6.05;;;5.30;;
10403;SDS011;5248;47.374;8.486;2023-05-29T08:00:27;6.40;;;5.65;;
10403;SDS011;5248;47.374;8.486;2023-05-29T08:02:55;12.23;;;5.55;;
10403;SDS011;5248;47.374;8.486;2023-05-29T08:05:22;6.60;;;5.90;;
10403;SDS011;5248;47.374;8.486;2023-05-29T08:07:49;7.15;;;5.30;;
10403;SDS011;5248;47.374;8.486;2023-05-29T08:10:15;8.45;;;4.93;;
10403;SDS011;5248;47.374;8.486;2023-05-29T08:12:42;6.32;;;5.40;;
10403;SDS011;5248;47.374;8.486;2023-05-29T08:15:08;8.95;;;5.43;;
10403;SDS011;5248;47.374;8.486;2023-05-29T08:17:35;9.35;;;5.28;;
10403;SDS011;5248;47.374;8.486;2023-05-29T08:20:03;6.18;;;5.30;;
10403;SDS011;5248;47.374;8.486;2023-05-29T08:22:32;6.15;;;5.50;;
10403;SDS011;5248;47.374;8.486;2023-05-29T08:24:59;7.88;;;5.55;;
10403;SDS011;5248;47.374;8.486;2023-05-29T08:27:26;7.25;;;5.32;;
10403;SDS011;5248;47.374;8.486;2023-05-29T08:29:53;7.88;;;5.35;;
10403;SDS011;5248;47.374;8.486;2023-05-29T08:32:19;7.65;;;5.47;;
10403;SDS011;5248;47.374;8.486;2023-05-29T08:34:46;6.80;;;5.18;;
10403;SDS011;5248;47.374;8.486;2023-05-29T08:37:14;6.40;;;5.15;;
10403;SDS011;5248;47.374;8.486;2023-05-29T08:39:41;8.10;;;5.25;;
10403;SDS011;5248;47.374;8.486;2023-05-29T08:42:07;5.25;;;4.85;;
10403;SDS011;5248;47.374;8.486;2023-05-29T08:44:39;5.80;;;5.30;;
10403;SDS011;5248;47.374;8.486;2023-05-29T08:47:06;6.30;;;5.40;;
10403;SDS011;5248;47.374;8.486;2023-05-29T08:49:37;5.70;;;5.20;;
10403;SDS011;5248;47.374;8.486;2023-05-29T08:52:09;6.47;;;5.25;;
10403;SDS011;5248;47.374;8.486;2023-05-29T08:54:37;7.45;;;5.60;;
10403;SDS011;5248;47.374;8.486;2023-05-29T08:57:04;7.50;;;5.40;;
10403;SDS011;5248;47.374;8.486;2023-05-29T08:59:31;8.00;;;4.97;;
10403;SDS011;5248;47.374;8.486;2023-05-29T09:01:58;6.65;;;4.90;;
10403;SDS011;5248;47.374;8.486;2023-05-29T09:04:25;5.88;;;4.97;;
10403;SDS011;5248;47.374;8.486;2023-05-29T09:06:51;5.07;;;4.47;;
10403;SDS011;5248;47.374;8.486;2023-05-29T09:09:20;4.95;;;4.47;;
10403;SDS011;5248;47.374;8.486;2023-05-29T09:11:49;7.85;;;4.85;;
10403;SDS011;5248;47.374;8.486;2023-05-29T09:16:59;5.05;;;4.55;;
10403;SDS011;5248;47.374;8.486;2023-05-29T09:19:26;5.18;;;4.70;;
10403;SDS011;5248;47.374;8.486;2023-05-29T09:21:54;5.93;;;5.07;;
10403;SDS011;5248;47.374;8.486;2023-05-29T09:24:28;5.03;;;4.50;;
10403;SDS011;5248;47.374;8.486;2023-05-29T09:26:57;7.63;;;4.85;;
10403;SDS011;5248;47.374;8.486;2023-05-29T09:29:25;5.57;;;4.55;;
10403;SDS011;5248;47.374;8.486;2023-05-29T09:31:51;7.45;;;5.03;;
10403;SDS011;5248;47.374;8.486;2023-05-29T09:34:18;6.10;;;5.07;;
10403;SDS011;5248;47.374;8.486;2023-05-29T09:36:45;5.38;;;4.72;;
10403;SDS011;5248;47.374;8.486;2023-05-29T09:39:12;5.32;;;4.53;;
10403;SDS011;5248;47.374;8.486;2023-05-29T09:41:41;5.45;;;4.95;;
10403;SDS011;5248;47.374;8.486;2023-05-29T09:44:09;5.57;;;4.70;;
10403;SDS011;5248;47.374;8.486;2023-05-29T09:46:38;5.32;;;4.72;;
10403;SDS011;5248;47.374;8.486;2023-05-29T09:49:07;6.53;;;4.95;;
10403;SDS011;5248;47.374;8.486;2023-05-29T09:51:34;5.75;;;5.20;;
10403;SDS011;5248;47.374;8.486;2023-05-29T09:54:12;6.20;;;4.95;;
10403;SDS011;5248;47.374;8.486;2023-05-29T09:56:40;6.60;;;4.70;;
10403;SDS011;5248;47.374;8.486;2023-05-29T09:59:10;6.22;;;4.82;;
10403;SDS011;5248;47.374;8.486;2023-05-29T10:01:40;5.18;;;4.68;;
10403;SDS011;5248;47.374;8.486;2023-05-29T10:04:09;5.25;;;4.47;;
10403;SDS011;5248;47.374;8.486;2023-05-29T10:06:36;5.15;;;4.68;;
10403;SDS011;5248;47.374;8.486;2023-05-29T10:09:05;5.05;;;4.50;;
10403;SDS011;5248;47.374;8.486;2023-05-29T10:11:33;4.93;;;4.38;;
10403;SDS011;5248;47.374;8.486;2023-05-29T10:14:00;5.40;;;4.68;;
10403;SDS011;5248;47.374;8.486;2023-05-29T10:16:30;5.43;;;4.93;;
10403;SDS011;5248;47.374;8.486;2023-05-29T10:19:00;6.00;;;4.18;;
10403;SDS011;5248;47.374;8.486;2023-05-29T10:21:31;4.57;;;4.18;;
10403;SDS011;5248;47.374;8.486;2023-05-29T10:23:59;4.93;;;4.40;;
10403;SDS011;5248;47.374;8.486;2023-05-29T10:26:27;4.80;;;4.40;;
10403;SDS011;5248;47.374;8.486;2023-05-29T10:28:58;4.68;;;4.28;;
10403;SDS011;5248;47.374;8.486;2023-05-29T10:31:32;5.13;;;4.25;;
10403;SDS011;5248;47.374;8.486;2023-05-29T10:34:09;7.57;;;4.80;;
10403;SDS011;5248;47.374;8.486;2023-05-29T10:36:42;6.05;;;4.60;;
10403;SDS011;5248;47.374;8.486;2023-05-29T10:39:11;5.28;;;4.55;;
10403;SDS011;5248;47.374;8.486;2023-05-29T10:41:38;6.55;;;4.90;;
10403;SDS011;5248;47.374;8.486;2023-05-29T10:47:09;7.57;;;4.50;;
10403;SDS011;5248;47.374;8.486;2023-05-29T10:49:37;4.95;;;4.55;;
10403;SDS011;5248;47.374;8.486;2023-05-29T10:52:04;5.38;;;4.60;;
10403;SDS011;5248;47.374;8.486;2023-05-29T10:54:39;5.03;;;4.25;;
10403;SDS011;5248;47.374;8.486;2023-05-29T10:57:07;9.57;;;4.85;;
10403;SDS011;5248;47.374;8.486;2023-05-29T10:59:35;5.28;;;4.35;;
10403;SDS011;5248;47.374;8.486;2023-05-29T11:02:02;4.30;;;3.90;;
10403;SDS011;5248;47.374;8.486;2023-05-29T11:04:31;4.57;;;4.18;;
10403;SDS011;5248;47.374;8.486;2023-05-29T11:06:59;4.78;;;4.35;;
10403;SDS011;5248;47.374;8.486;2023-05-29T11:09:29;4.97;;;4.57;;
10403;SDS011;5248;47.374;8.486;2023-05-29T11:12:12;5.13;;;4.60;;
10403;SDS011;5248;47.374;8.486;2023-05-29T11:14:53;6.10;;;4.43;;
10403;SDS011;5248;47.374;8.486;2023-05-29T11:17:32;4.70;;;4.30;;
10403;SDS011;5248;47.374;8.486;2023-05-29T11:20:16;4.57;;;4.15;;
10403;SDS011;5248;47.374;8.486;2023-05-29T11:22:53;5.00;;;4.57;;
10403;SDS011;5248;47.374;8.486;2023-05-29T11:25:26;6.05;;;4.50;;
10403;SDS011;5248;47.374;8.486;2023-05-29T11:27:53;4.90;;;4.50;;
10403;SDS011;5248;47.374;8.486;2023-05-29T11:30:22;5.03;;;4.53;;
10403;SDS011;5248;47.374;8.486;2023-05-29T11:32:49;5.53;;;4.32;;
10403;SDS011;5248;47.374;8.486;2023-05-29T11:35:19;5.47;;;4.32;;
10403;SDS011;5248;47.374;8.486;2023-05-29T11:37:48;4.90;;;4.40;;
10403;SDS011;5248;47.374;8.486;2023-05-29T11:40:15;5.20;;;4.28;;
10403;SDS011;5248;47.374;8.486;2023-05-29T11:42:42;5.90;;;4.30;;
10403;SDS011;5248;47.374;8.486;2023-05-29T11:45:11;4.90;;;4.53;;
10403;SDS011;5248;47.374;8.486;2023-05-29T11:47:53;5.05;;;4.25;;
10403;SDS011;5248;47.374;8.486;2023-05-29T11:50:30;5.63;;;4.35;;
10403;SDS011;5248;47.374;8.486;2023-05-29T11:52:57;4.30;;;3.90;;
10403;SDS011;5248;47.374;8.486;2023-05-29T11:55:25;4.75;;;4.28;;
10403;SDS011;5248;47.374;8.486;2023-05-29T11:57:55;4.95;;;4.05;;
10403;SDS011;5248;47.374;8.486;2023-05-29T12:00:22;4.63;;;4.20;;
10403;SDS011;5248;47.374;8.486;2023-05-29T12:02:49;7.53;;;4.50;;
10403;SDS011;5248;47.374;8.486;2023-05-29T12:05:18;5.05;;;4.53;;
10403;SDS011;5248;47.374;8.486;2023-05-29T12:07:52;4.80;;;4.40;;
10403;SDS011;5248;47.374;8.486;2023-05-29T12:10:21;5.93;;;4.53;;
10403;SDS011;5248;47.374;8.486;2023-05-29T12:12:51;5.00;;;4.60;;
10403;SDS011;5248;47.374;8.486;2023-05-29T12:15:19;5.78;;;4.45;;
10403;SDS011;5248;47.374;8.486;2023-05-29T12:17:47;5.10;;;4.28;;
10403;SDS011;5248;47.374;8.486;2023-05-29T12:20:14;4.82;;;4.43;;
10403;SDS011;5248;47.374;8.486;2023-05-29T12:22:41;5.65;;;4.82;;
10403;SDS011;5248;47.374;8.486;2023-05-29T12:25:09;4.68;;;4.28;;
10403;SDS011;5248;47.374;8.486;2023-05-29T12:27:37;5.05;;;4.55;;
10403;SDS011;5248;47.374;8.486;2023-05-29T12:30:08;5.20;;;4.70;;
10403;SDS011;5248;47.374;8.486;2023-05-29T12:32:36;5.80;;;5.20;;
10403;SDS011;5248;47.374;8.486;2023-05-29T12:35:10;5.93;;;5.32;;
10403;SDS011;5248;47.374;8.486;2023-05-29T12:37:42;5.30;;;4.80;;
10403;SDS011;5248;47.374;8.486;2023-05-29T12:40:11;6.20;;;4.75;;
10403;SDS011;5248;47.374;8.486;2023-05-29T12:42:40;5.47;;;4.50;;
10403;SDS011;5248;47.374;8.486;2023-05-29T12:45:07;4.90;;;4.45;;
10403;SDS011;5248;47.374;8.486;2023-05-29T12:47:34;5.18;;;4.68;;
10403;SDS011;5248;47.374;8.486;2023-05-29T12:50:04;7.20;;;5.18;;
10403;SDS011;5248;47.374;8.486;2023-05-29T12:52:31;5.00;;;4.43;;
10403;SDS011;5248;47.374;8.486;2023-05-29T12:54:58;4.82;;;4.43;;
10403;SDS011;5248;47.374;8.486;2023-05-29T12:57:26;5.03;;;4.55;;
10403;SDS011;5248;47.374;8.486;2023-05-29T12:59:52;5.78;;;4.90;;
10403;SDS011;5248;47.374;8.486;2023-05-29T13:02:18;6.68;;;4.65;;
10403;SDS011;5248;47.374;8.486;2023-05-29T13:04:45;4.95;;;4.45;;
10403;SDS011;5248;47.374;8.486;2023-05-29T13:07:13;5.30;;;4.85;;
10403;SDS011;5248;47.374;8.486;2023-05-29T13:09:39;6.22;;;5.53;;
10403;SDS011;5248;47.374;8.486;2023-05-29T13:12:06;5.57;;;4.70;;
10403;SDS011;5248;47.374;8.486;2023-05-29T13:14:34;5.30;;;4.80;;
10403;SDS011;5248;47.374;8.486;2023-05-29T13:17:00;6.15;;;4.70;;
10403;SDS011;5248;47.374;8.486;2023-05-29T13:19:27;7.22;;;4.75;;
10403;SDS011;5248;47.374;8.486;2023-05-29T13:21:55;5.53;;;5.03;;
10403;SDS011;5248;47.374;8.486;2023-05-29T13:24:21;5.55;;;4.88;;
10403;SDS011;5248;47.374;8.486;2023-05-29T13:26:48;5.43;;;4.90;;
10403;SDS011;5248;47.374;8.486;2023-05-29T13:29:15;6.00;;;5.10;;
10403;SDS011;5248;47.374;8.486;2023-05-29T13:31:43;5.70;;;5.20;;
10403;SDS011;5248;47.374;8.486;2023-05-29T13:34:09;5.25;;;4.75;;
10403;SDS011;5248;47.374;8.486;2023-05-29T13:36:36;5.72;;;5.18;;
10403;SDS011;5248;47.374;8.486;2023-05-29T13:39:03;5.70;;;5.20;;
10403;SDS011;5248;47.374;8.486;2023-05-29T13:41:31;6.55;;;5.13;;
10403;SDS011;5248;47.374;8.486;2023-05-29T13:43:57;5.97;;;5.32;;
10403;SDS011;5248;47.374;8.486;2023-05-29T13:46:24;6.13;;;5.53;;
10403;SDS011;5248;47.374;8.486;2023-05-29T13:48:53;7.70;;;5.05;;
10403;SDS011;5248;47.374;8.486;2023-05-29T13:51:19;5.90;;;5.28;;
10403;SDS011;5248;47.374;8.486;2023-05-29T13:53:46;5.50;;;5.03;;
10403;SDS011;5248;47.374;8.486;2023-05-29T13:56:12;5.82;;;5.20;;
10403;SDS011;5248;47.374;8.486;2023-05-29T13:58:38;5.65;;;5.13;;
10403;SDS011;5248;47.374;8.486;2023-05-29T14:01:05;5.63;;;5.05;;
10403;SDS011;5248;47.374;8.486;2023-05-29T14:03:31;5.35;;;4.80;;
10403;SDS011;5248;47.374;8.486;2023-05-29T14:05:59;7.28;;;4.90;;
10403;SDS011;5248;47.374;8.486;2023-05-29T14:08:30;5.63;;;4.60;;
10403;SDS011;5248;47.374;8.486;2023-05-29T14:10:56;6.68;;;5.00;;
10403;SDS011;5248;47.374;8.486;2023-05-29T14:13:22;5.57;;;4.88;;
10403;SDS011;5248;47.374;8.486;2023-05-29T14:15:49;5.10;;;4.68;;
10403;SDS011;5248;47.374;8.486;2023-05-29T14:18:16;5.00;;;4.50;;
10403;SDS011;5248;47.374;8.486;2023-05-29T14:20:42;5.20;;;4.70;;
10403;SDS011;5248;47.374;8.486;2023-05-29T14:23:14;5.30;;;4.78;;
10403;SDS011;5248;47.374;8.486;2023-05-29T14:25:40;5.10;;;4.70;;
10403;SDS011;5248;47.374;8.486;2023-05-29T14:28:07;4.90;;;4.50;;
10403;SDS011;5248;47.374;8.486;2023-05-29T14:30:34;4.80;;;4.40;;
10403;SDS011;5248;47.374;8.486;2023-05-29T14:33:02;5.13;;;4.63;;
10403;SDS011;5248;47.374;8.486;2023-05-29T14:35:29;4.75;;;4.28;;
10403;SDS011;5248;47.374;8.486;2023-05-29T14:37:55;5.10;;;4.53;;
10403;SDS011;5248;47.374;8.486;2023-05-29T14:40:23;5.18;;;4.70;;
10403;SDS011;5248;47.374;8.486;2023-05-29T14:42:50;4.47;;;4.13;;
10403;SDS011;5248;47.374;8.486;2023-05-29T14:45:19;5.60;;;5.10;;
10403;SDS011;5248;47.374;8.486;2023-05-29T14:47:45;5.32;;;4.80;;
10403;SDS011;5248;47.374;8.486;2023-05-29T14:50:13;5.93;;;4.57;;
10403;SDS011;5248;47.374;8.486;2023-05-29T14:52:40;4.38;;;4.00;;
10403;SDS011;5248;47.374;8.486;2023-05-29T14:55:07;6.22;;;4.28;;
10403;SDS011;5248;47.374;8.486;2023-05-29T14:57:35;4.88;;;4.43;;
10403;SDS011;5248;47.374;8.486;2023-05-29T15:00:02;4.70;;;4.30;;
10403;SDS011;5248;47.374;8.486;2023-05-29T15:02:31;5.50;;;4.10;;
10403;SDS011;5248;47.374;8.486;2023-05-29T15:04:57;4.32;;;4.00;;
10403;SDS011;5248;47.374;8.486;2023-05-29T15:07:24;5.47;;;4.68;;
10403;SDS011;5248;47.374;8.486;2023-05-29T15:09:50;5.20;;;4.63;;